CAL173 VHHX-RJAA
Flight info
| Callsign | CAL173 |
|---|---|
| Flight time | 3h 59m |
| Altitude | 35000 |
| Route | ENVAR M750 BILLY RUTAS |
| Aircraft | B77W/H-SDE1E2E3FGHIJ2J3J4J5M1RWXY/LB1D1 |
Departure
| Time | 2026-05-06 08:56 |
|---|---|
| Airport | Hong Kong International Airport Kai Tak (VHHX) |
Arrival
| Time | 2026-05-06 12:55 |
|---|---|
| Airport | Narita International Airport (RJAA) |
| Time | Latitude | Longitude | Altitude | Speed | Heading |
|---|---|---|---|---|---|
| 2026-05-06 08:42 | 22.32950 | 114.19650 | 44 ft | 0 kts | 314° |
| 2026-05-06 08:47 | 22.32947 | 114.19653 | 44 ft | 2 kts | 314° |
| 2026-05-06 08:48 | 22.32934 | 114.19668 | 42 ft | 3 kts | 314° |
| 2026-05-06 08:48 | 22.32920 | 114.19684 | 41 ft | 3 kts | 314° |
| 2026-05-06 08:48 | 22.32908 | 114.19697 | 43 ft | 3 kts | 328° |
| 2026-05-06 08:48 | 22.32896 | 114.19704 | 42 ft | 3 kts | 0° |
| 2026-05-06 08:49 | 22.32883 | 114.19702 | 44 ft | 3 kts | 32° |
| 2026-05-06 08:49 | 22.32872 | 114.19693 | 43 ft | 1 kts | 44° |
| 2026-05-06 08:49 | 22.32861 | 114.19682 | 42 ft | 3 kts | 44° |
| 2026-05-06 08:49 | 22.32849 | 114.19669 | 41 ft | 1 kts | 44° |
| 2026-05-06 08:50 | 22.32847 | 114.19667 | 41 ft | 0 kts | 44° |
| 2026-05-06 08:50 | 22.32848 | 114.19668 | 41 ft | 2 kts | 44° |
| 2026-05-06 08:51 | 22.32916 | 114.19740 | 46 ft | 21 kts | 50° |
| 2026-05-06 08:51 | 22.32911 | 114.19819 | 44 ft | 13 kts | 128° |
| 2026-05-06 08:51 | 22.32814 | 114.19898 | 44 ft | 14 kts | 178° |
| 2026-05-06 08:51 | 22.32691 | 114.19798 | 44 ft | 35 kts | 225° |
| 2026-05-06 08:52 | 22.32479 | 114.19575 | 44 ft | 33 kts | 224° |
| 2026-05-06 08:52 | 22.32387 | 114.19581 | 44 ft | 21 kts | 137° |
| 2026-05-06 08:52 | 22.32215 | 114.19761 | 44 ft | 47 kts | 134° |
| 2026-05-06 08:52 | 22.31970 | 114.20035 | 44 ft | 51 kts | 134° |
| 2026-05-06 08:53 | 22.31736 | 114.20297 | 44 ft | 46 kts | 134° |
| 2026-05-06 08:53 | 22.31521 | 114.20537 | 44 ft | 43 kts | 134° |
| 2026-05-06 08:53 | 22.31320 | 114.20762 | 44 ft | 41 kts | 134° |
| 2026-05-06 08:53 | 22.31129 | 114.20978 | 44 ft | 39 kts | 133° |
| 2026-05-06 08:54 | 22.30947 | 114.21181 | 44 ft | 36 kts | 130° |
| 2026-05-06 08:54 | 22.30781 | 114.21381 | 44 ft | 37 kts | 133° |
| 2026-05-06 08:54 | 22.30579 | 114.21604 | 44 ft | 45 kts | 134° |
| 2026-05-06 08:54 | 22.30457 | 114.21682 | 44 ft | 13 kts | 204° |
| 2026-05-06 08:55 | 22.30426 | 114.21626 | 44 ft | 5 kts | 282° |
| 2026-05-06 08:55 | 22.30486 | 114.21539 | 44 ft | 37 kts | 314° |
| 2026-05-06 08:55 | 22.30861 | 114.21120 | 44 ft | 117 kts | 314° |
| 2026-05-06 08:55 | 22.31596 | 114.20292 | 46 ft | 185 kts | 316° |
| 2026-05-06 08:56 | 22.32532 | 114.19250 | 644 ft | 201 kts | 316° |
| 2026-05-06 08:56 | 22.33295 | 114.17952 | 1046 ft | 214 kts | 285° |
| 2026-05-06 08:56 | 22.33165 | 114.16357 | 1436 ft | 219 kts | 243° |
| 2026-05-06 08:56 | 22.32508 | 114.14836 | 1866 ft | 230 kts | 246° |
| 2026-05-06 08:57 | 22.31911 | 114.13126 | 2210 ft | 256 kts | 248° |
| 2026-05-06 08:57 | 22.31271 | 114.11310 | 2995 ft | 259 kts | 247° |
| 2026-05-06 08:57 | 22.30594 | 114.09497 | 3893 ft | 260 kts | 247° |
| 2026-05-06 08:57 | 22.29910 | 114.07683 | 4772 ft | 261 kts | 247° |
| 2026-05-06 08:58 | 22.28979 | 114.06033 | 5579 ft | 261 kts | 223° |
| 2026-05-06 08:58 | 22.27441 | 114.05048 | 6365 ft | 265 kts | 200° |
| 2026-05-06 08:58 | 22.25598 | 114.04740 | 6947 ft | 272 kts | 184° |
| 2026-05-06 08:58 | 22.23761 | 114.04282 | 7461 ft | 274 kts | 209° |
| 2026-05-06 08:59 | 22.22036 | 114.03421 | 8030 ft | 278 kts | 193° |
| 2026-05-06 08:59 | 22.20086 | 114.03547 | 8646 ft | 290 kts | 161° |
| 2026-05-06 08:59 | 22.18283 | 114.04572 | 8947 ft | 295 kts | 152° |
| 2026-05-06 08:59 | 22.16520 | 114.05735 | 8924 ft | 296 kts | 151° |
| 2026-05-06 09:00 | 22.14765 | 114.06876 | 8925 ft | 294 kts | 152° |
| 2026-05-06 09:00 | 22.13006 | 114.07981 | 8919 ft | 292 kts | 153° |
| 2026-05-06 09:00 | 22.11835 | 114.08698 | 8922 ft | 292 kts | 153° |
| 2026-05-06 09:00 | 22.10059 | 114.09762 | 8930 ft | 292 kts | 154° |
| 2026-05-06 09:01 | 22.08249 | 114.10828 | 8930 ft | 292 kts | 154° |
| 2026-05-06 09:01 | 22.06481 | 114.11857 | 8930 ft | 293 kts | 154° |
| 2026-05-06 09:01 | 22.04679 | 114.12899 | 8928 ft | 294 kts | 154° |
| 2026-05-06 09:01 | 22.02872 | 114.13939 | 8929 ft | 295 kts | 154° |
| 2026-05-06 09:02 | 22.01055 | 114.14983 | 8911 ft | 295 kts | 154° |
| 2026-05-06 09:02 | 21.99242 | 114.16022 | 8924 ft | 295 kts | 154° |
| 2026-05-06 09:02 | 21.97426 | 114.17062 | 8918 ft | 294 kts | 154° |
| 2026-05-06 09:02 | 21.95618 | 114.18097 | 8918 ft | 294 kts | 154° |
| 2026-05-06 09:03 | 21.93816 | 114.19128 | 8918 ft | 293 kts | 155° |
| 2026-05-06 09:03 | 21.92017 | 114.20158 | 8910 ft | 293 kts | 154° |
| 2026-05-06 09:03 | 21.90215 | 114.21187 | 8915 ft | 292 kts | 155° |
| 2026-05-06 09:03 | 21.88422 | 114.22210 | 8921 ft | 292 kts | 154° |
| 2026-05-06 09:04 | 21.86710 | 114.23352 | 8899 ft | 290 kts | 138° |
| 2026-05-06 09:04 | 21.85599 | 114.25132 | 8968 ft | 296 kts | 110° |
| 2026-05-06 09:04 | 21.85275 | 114.27342 | 9501 ft | 305 kts | 90° |
| 2026-05-06 09:04 | 21.85354 | 114.29658 | 10087 ft | 312 kts | 87° |
| 2026-05-06 09:05 | 21.85491 | 114.32046 | 10529 ft | 328 kts | 86° |
| 2026-05-06 09:05 | 21.85644 | 114.34560 | 10895 ft | 345 kts | 86° |
| 2026-05-06 09:05 | 21.85804 | 114.37241 | 10934 ft | 374 kts | 86° |
| 2026-05-06 09:05 | 21.85967 | 114.40133 | 10952 ft | 395 kts | 86° |
| 2026-05-06 09:06 | 21.86125 | 114.43086 | 10929 ft | 393 kts | 87° |
| 2026-05-06 09:06 | 21.86276 | 114.46017 | 10920 ft | 393 kts | 87° |
| 2026-05-06 09:06 | 21.86424 | 114.48966 | 10927 ft | 393 kts | 87° |
| 2026-05-06 09:06 | 21.86566 | 114.51858 | 10920 ft | 391 kts | 87° |
| 2026-05-06 09:07 | 21.86710 | 114.54792 | 10925 ft | 394 kts | 87° |
| 2026-05-06 09:07 | 21.86853 | 114.57729 | 10926 ft | 393 kts | 87° |
| 2026-05-06 09:07 | 21.86996 | 114.60668 | 10922 ft | 391 kts | 87° |
| 2026-05-06 09:07 | 21.87139 | 114.63604 | 10928 ft | 394 kts | 87° |
| 2026-05-06 09:08 | 21.87281 | 114.66546 | 10923 ft | 392 kts | 87° |
| 2026-05-06 09:08 | 21.87423 | 114.69474 | 10921 ft | 392 kts | 87° |
| 2026-05-06 09:08 | 21.87565 | 114.72419 | 10929 ft | 393 kts | 87° |
| 2026-05-06 09:08 | 21.87706 | 114.75350 | 10925 ft | 391 kts | 87° |
| 2026-05-06 09:09 | 21.87849 | 114.78296 | 10930 ft | 395 kts | 87° |
| 2026-05-06 09:09 | 21.87990 | 114.81234 | 10924 ft | 392 kts | 87° |
| 2026-05-06 09:09 | 21.88129 | 114.84136 | 10925 ft | 393 kts | 87° |
| 2026-05-06 09:09 | 21.88271 | 114.87081 | 11070 ft | 398 kts | 87° |
| 2026-05-06 09:10 | 21.88419 | 114.90085 | 11685 ft | 405 kts | 87° |
| 2026-05-06 09:10 | 21.88569 | 114.93124 | 12482 ft | 407 kts | 86° |
| 2026-05-06 09:10 | 21.88720 | 114.96194 | 13128 ft | 414 kts | 86° |
| 2026-05-06 09:10 | 21.88873 | 114.99301 | 13826 ft | 418 kts | 86° |
| 2026-05-06 09:11 | 21.89027 | 115.02441 | 14453 ft | 421 kts | 86° |
| 2026-05-06 09:11 | 21.89180 | 115.05601 | 15088 ft | 424 kts | 87° |
| 2026-05-06 09:11 | 21.89334 | 115.08785 | 15711 ft | 428 kts | 87° |
| 2026-05-06 09:11 | 21.89489 | 115.12007 | 16325 ft | 431 kts | 87° |
| 2026-05-06 09:12 | 21.89644 | 115.15237 | 16935 ft | 435 kts | 87° |
| 2026-05-06 09:12 | 21.89800 | 115.18511 | 17497 ft | 439 kts | 87° |
| 2026-05-06 09:12 | 21.89957 | 115.21801 | 18111 ft | 442 kts | 87° |
| 2026-05-06 09:12 | 21.90114 | 115.25127 | 18594 ft | 445 kts | 87° |
| 2026-05-06 09:13 | 21.90271 | 115.28470 | 19136 ft | 449 kts | 87° |
| 2026-05-06 09:13 | 21.90430 | 115.31847 | 19539 ft | 454 kts | 87° |
| 2026-05-06 09:13 | 21.90588 | 115.35241 | 20128 ft | 455 kts | 87° |
| 2026-05-06 09:13 | 21.90748 | 115.38665 | 20524 ft | 461 kts | 87° |
| 2026-05-06 09:14 | 21.90908 | 115.42124 | 21062 ft | 462 kts | 87° |
| 2026-05-06 09:14 | 21.91067 | 115.45588 | 21582 ft | 465 kts | 87° |
| 2026-05-06 09:14 | 21.91228 | 115.49091 | 21950 ft | 471 kts | 87° |
| 2026-05-06 09:14 | 21.91388 | 115.52587 | 22363 ft | 475 kts | 87° |
| 2026-05-06 09:15 | 21.91550 | 115.56146 | 22853 ft | 478 kts | 87° |
| 2026-05-06 09:15 | 21.91712 | 115.59726 | 23323 ft | 481 kts | 87° |
| 2026-05-06 09:15 | 21.91875 | 115.63344 | 23698 ft | 485 kts | 87° |
| 2026-05-06 09:15 | 21.92038 | 115.66982 | 24051 ft | 488 kts | 87° |
| 2026-05-06 09:16 | 21.92201 | 115.70639 | 24425 ft | 491 kts | 87° |
| 2026-05-06 09:16 | 21.92364 | 115.74325 | 24799 ft | 493 kts | 87° |
| 2026-05-06 09:16 | 21.92528 | 115.78024 | 25161 ft | 496 kts | 87° |
| 2026-05-06 09:16 | 21.92691 | 115.81747 | 25522 ft | 499 kts | 87° |
| 2026-05-06 09:17 | 21.92854 | 115.85487 | 25872 ft | 501 kts | 87° |
| 2026-05-06 09:17 | 21.93018 | 115.89246 | 26209 ft | 504 kts | 87° |
| 2026-05-06 09:17 | 21.93182 | 115.93039 | 26558 ft | 507 kts | 87° |
| 2026-05-06 09:17 | 21.93343 | 115.96790 | 26896 ft | 509 kts | 87° |
| 2026-05-06 09:18 | 21.93507 | 116.00613 | 27224 ft | 512 kts | 87° |
| 2026-05-06 09:18 | 21.93670 | 116.04457 | 27579 ft | 514 kts | 87° |
| 2026-05-06 09:18 | 21.93833 | 116.08312 | 27905 ft | 516 kts | 87° |
| 2026-05-06 09:18 | 21.93996 | 116.12187 | 28232 ft | 519 kts | 87° |
| 2026-05-06 09:19 | 21.94158 | 116.16068 | 28537 ft | 521 kts | 87° |
| 2026-05-06 09:19 | 21.94321 | 116.19981 | 28834 ft | 523 kts | 87° |
| 2026-05-06 09:19 | 21.94483 | 116.23898 | 29119 ft | 525 kts | 87° |
| 2026-05-06 09:19 | 21.94645 | 116.27839 | 29388 ft | 527 kts | 87° |
| 2026-05-06 09:20 | 21.94807 | 116.31790 | 29660 ft | 529 kts | 87° |
| 2026-05-06 09:20 | 21.94968 | 116.35754 | 29922 ft | 530 kts | 87° |
| 2026-05-06 09:20 | 21.95128 | 116.39719 | 30214 ft | 530 kts | 87° |
| 2026-05-06 09:20 | 21.95287 | 116.43681 | 30531 ft | 529 kts | 87° |
| 2026-05-06 09:21 | 21.95445 | 116.47633 | 30868 ft | 528 kts | 87° |
| 2026-05-06 09:21 | 21.95601 | 116.51581 | 31185 ft | 527 kts | 87° |
| 2026-05-06 09:21 | 21.95757 | 116.55526 | 31480 ft | 527 kts | 87° |
| 2026-05-06 09:21 | 21.95912 | 116.59470 | 31783 ft | 526 kts | 87° |
| 2026-05-06 09:22 | 21.96065 | 116.63403 | 32089 ft | 526 kts | 87° |
| 2026-05-06 09:22 | 21.96217 | 116.67341 | 32386 ft | 525 kts | 87° |
| 2026-05-06 09:22 | 21.96366 | 116.71220 | 32674 ft | 525 kts | 87° |
| 2026-05-06 09:22 | 21.96519 | 116.75203 | 32883 ft | 527 kts | 87° |
| 2026-05-06 09:23 | 21.96669 | 116.79155 | 32908 ft | 529 kts | 87° |
| 2026-05-06 09:23 | 21.96964 | 116.86991 | 32929 ft | 524 kts | 87° |
| 2026-05-06 09:24 | 21.97255 | 116.94836 | 32937 ft | 522 kts | 87° |
| 2026-05-06 09:24 | 21.97542 | 117.02643 | 32940 ft | 521 kts | 87° |
| 2026-05-06 09:25 | 21.97825 | 117.10467 | 32937 ft | 522 kts | 87° |
| 2026-05-06 09:25 | 21.98105 | 117.18294 | 32939 ft | 523 kts | 87° |
| 2026-05-06 09:26 | 21.98380 | 117.26086 | 32944 ft | 525 kts | 87° |
| 2026-05-06 09:26 | 21.98654 | 117.33962 | 32939 ft | 526 kts | 87° |
| 2026-05-06 09:27 | 21.98925 | 117.41843 | 32938 ft | 526 kts | 87° |
| 2026-05-06 09:27 | 21.99483 | 117.49674 | 32924 ft | 523 kts | 75° |
| 2026-05-06 09:27 | 22.00775 | 117.53307 | 32922 ft | 517 kts | 57° |
| 2026-05-06 09:28 | 22.02686 | 117.56564 | 32967 ft | 514 kts | 54° |
| 2026-05-06 09:28 | 22.06573 | 117.63079 | 32945 ft | 518 kts | 56° |
| 2026-05-06 09:29 | 22.10385 | 117.69710 | 32942 ft | 521 kts | 56° |
| 2026-05-06 09:29 | 22.14131 | 117.76360 | 32938 ft | 523 kts | 57° |
| 2026-05-06 09:30 | 22.17903 | 117.83067 | 32941 ft | 523 kts | 56° |
| 2026-05-06 09:30 | 22.21678 | 117.89771 | 32941 ft | 521 kts | 56° |
| 2026-05-06 09:31 | 22.25442 | 117.96459 | 32942 ft | 520 kts | 56° |
| 2026-05-06 09:31 | 22.29196 | 118.03088 | 32942 ft | 519 kts | 56° |
| 2026-05-06 09:32 | 22.33065 | 118.09667 | 32940 ft | 518 kts | 55° |
| 2026-05-06 09:32 | 22.36927 | 118.16230 | 32940 ft | 517 kts | 55° |
| 2026-05-06 09:33 | 22.40768 | 118.22817 | 32943 ft | 517 kts | 56° |
| 2026-05-06 09:33 | 22.44531 | 118.29443 | 32945 ft | 518 kts | 56° |
| 2026-05-06 09:34 | 22.48273 | 118.36093 | 32942 ft | 518 kts | 56° |
| 2026-05-06 09:34 | 22.52024 | 118.42737 | 32944 ft | 518 kts | 56° |
| 2026-05-06 09:35 | 22.55783 | 118.49394 | 32945 ft | 518 kts | 56° |
| 2026-05-06 09:35 | 22.59526 | 118.55997 | 32944 ft | 518 kts | 55° |
| 2026-05-06 09:36 | 22.63314 | 118.62624 | 32938 ft | 517 kts | 55° |
| 2026-05-06 09:36 | 22.67097 | 118.69250 | 32941 ft | 517 kts | 55° |
| 2026-05-06 09:37 | 22.70881 | 118.75896 | 32939 ft | 517 kts | 55° |
| 2026-05-06 09:37 | 22.74654 | 118.82539 | 32941 ft | 517 kts | 55° |
| 2026-05-06 09:38 | 22.78423 | 118.89181 | 32939 ft | 517 kts | 55° |
| 2026-05-06 09:38 | 22.82165 | 118.95784 | 32939 ft | 517 kts | 55° |
| 2026-05-06 09:39 | 22.85928 | 119.02433 | 32937 ft | 517 kts | 55° |
| 2026-05-06 09:39 | 22.89682 | 119.09074 | 32939 ft | 517 kts | 55° |
| 2026-05-06 09:40 | 22.93441 | 119.15732 | 32941 ft | 517 kts | 55° |
| 2026-05-06 09:40 | 22.99072 | 119.25724 | 32937 ft | 517 kts | 55° |
| 2026-05-06 09:41 | 23.02822 | 119.32388 | 32938 ft | 517 kts | 55° |
| 2026-05-06 09:41 | 23.06538 | 119.39001 | 32937 ft | 517 kts | 55° |
| 2026-05-06 09:42 | 23.10282 | 119.45673 | 32935 ft | 517 kts | 55° |
| 2026-05-06 09:42 | 23.14022 | 119.52347 | 32938 ft | 517 kts | 55° |
| 2026-05-06 09:43 | 23.17764 | 119.59031 | 32931 ft | 517 kts | 55° |
| 2026-05-06 09:43 | 23.21494 | 119.65708 | 32935 ft | 516 kts | 55° |
| 2026-05-06 09:44 | 23.25194 | 119.72344 | 32939 ft | 516 kts | 55° |
| 2026-05-06 09:44 | 23.28910 | 119.79020 | 32937 ft | 515 kts | 55° |
| 2026-05-06 09:45 | 23.32623 | 119.85696 | 32934 ft | 515 kts | 55° |
| 2026-05-06 09:45 | 23.36562 | 119.92174 | 32946 ft | 511 kts | 48° |
| 2026-05-06 09:46 | 23.41382 | 119.97800 | 32931 ft | 505 kts | 39° |
| 2026-05-06 09:46 | 23.46502 | 120.02983 | 32935 ft | 506 kts | 39° |
| 2026-05-06 09:47 | 23.51653 | 120.08220 | 32941 ft | 507 kts | 39° |
| 2026-05-06 09:47 | 23.55921 | 120.12612 | 32948 ft | 507 kts | 40° |
| 2026-05-06 09:48 | 23.61044 | 120.17913 | 32940 ft | 508 kts | 40° |
| 2026-05-06 09:48 | 23.66168 | 120.23220 | 32946 ft | 508 kts | 40° |
| 2026-05-06 09:49 | 23.71297 | 120.28536 | 32948 ft | 508 kts | 40° |
| 2026-05-06 09:49 | 23.76425 | 120.33855 | 32952 ft | 509 kts | 40° |
| 2026-05-06 09:50 | 23.81533 | 120.39161 | 32950 ft | 509 kts | 40° |
| 2026-05-06 09:50 | 23.86660 | 120.44492 | 32958 ft | 509 kts | 40° |
| 2026-05-06 09:51 | 23.91778 | 120.49822 | 32966 ft | 508 kts | 40° |
| 2026-05-06 09:51 | 23.96877 | 120.55186 | 32963 ft | 508 kts | 40° |
| 2026-05-06 09:52 | 24.01972 | 120.60572 | 32968 ft | 508 kts | 40° |
| 2026-05-06 09:52 | 24.07021 | 120.65910 | 32973 ft | 508 kts | 40° |
| 2026-05-06 09:53 | 24.12115 | 120.71298 | 32965 ft | 508 kts | 40° |
| 2026-05-06 09:53 | 24.17196 | 120.76675 | 32971 ft | 508 kts | 40° |
| 2026-05-06 09:54 | 24.22286 | 120.82071 | 32957 ft | 508 kts | 40° |
| 2026-05-06 09:54 | 24.27360 | 120.87456 | 32981 ft | 508 kts | 40° |
| 2026-05-06 09:55 | 24.32407 | 120.92819 | 32985 ft | 508 kts | 40° |
| 2026-05-06 09:55 | 24.37480 | 120.98218 | 33027 ft | 508 kts | 40° |
| 2026-05-06 09:56 | 24.42469 | 121.03718 | 33025 ft | 510 kts | 46° |
| 2026-05-06 09:56 | 24.46930 | 121.09800 | 33029 ft | 512 kts | 49° |
| 2026-05-06 09:57 | 24.51314 | 121.15955 | 33038 ft | 512 kts | 48° |
| 2026-05-06 09:57 | 24.55731 | 121.22099 | 33027 ft | 512 kts | 48° |
| 2026-05-06 09:58 | 24.60170 | 121.28227 | 33032 ft | 512 kts | 48° |
| 2026-05-06 09:58 | 24.64605 | 121.34353 | 33029 ft | 512 kts | 48° |
| 2026-05-06 09:59 | 24.69013 | 121.40453 | 33025 ft | 512 kts | 48° |
| 2026-05-06 09:59 | 24.73444 | 121.46595 | 33002 ft | 512 kts | 48° |
| 2026-05-06 10:00 | 24.77859 | 121.52723 | 32968 ft | 511 kts | 48° |
| 2026-05-06 10:00 | 24.82273 | 121.58858 | 32976 ft | 510 kts | 48° |
| 2026-05-06 10:01 | 24.86667 | 121.64973 | 32976 ft | 509 kts | 48° |
| 2026-05-06 10:01 | 24.91074 | 121.71076 | 32962 ft | 507 kts | 46° |
| 2026-05-06 10:02 | 24.95682 | 121.76953 | 32973 ft | 506 kts | 45° |
| 2026-05-06 10:02 | 25.00306 | 121.82738 | 32947 ft | 506 kts | 45° |
| 2026-05-06 10:03 | 25.04925 | 121.88616 | 32983 ft | 508 kts | 45° |
| 2026-05-06 10:03 | 25.09544 | 121.94540 | 32988 ft | 510 kts | 45° |
| 2026-05-06 10:04 | 25.14185 | 122.00490 | 32982 ft | 510 kts | 45° |
| 2026-05-06 10:04 | 25.18788 | 122.06440 | 32979 ft | 509 kts | 45° |
| 2026-05-06 10:05 | 25.23375 | 122.12394 | 32976 ft | 508 kts | 45° |
| 2026-05-06 10:05 | 25.27950 | 122.18334 | 32977 ft | 507 kts | 45° |
| 2026-05-06 10:06 | 25.32494 | 122.24237 | 32976 ft | 506 kts | 45° |
| 2026-05-06 10:06 | 25.37053 | 122.30168 | 32980 ft | 506 kts | 45° |
| 2026-05-06 10:07 | 25.41620 | 122.36115 | 32976 ft | 506 kts | 45° |
| 2026-05-06 10:07 | 25.46173 | 122.42055 | 32974 ft | 507 kts | 45° |
| 2026-05-06 10:08 | 25.50736 | 122.48013 | 32972 ft | 507 kts | 45° |
| 2026-05-06 10:08 | 25.55311 | 122.53961 | 32977 ft | 507 kts | 45° |
| 2026-05-06 10:09 | 25.59890 | 122.59899 | 32972 ft | 507 kts | 45° |
| 2026-05-06 10:09 | 25.64475 | 122.65858 | 32970 ft | 508 kts | 45° |
| 2026-05-06 10:10 | 25.69032 | 122.71794 | 32984 ft | 508 kts | 45° |
| 2026-05-06 10:10 | 25.73616 | 122.77774 | 32978 ft | 508 kts | 45° |
| 2026-05-06 10:11 | 25.78192 | 122.83751 | 32979 ft | 508 kts | 45° |
| 2026-05-06 10:11 | 25.82768 | 122.89735 | 32979 ft | 508 kts | 45° |
| 2026-05-06 10:12 | 25.87339 | 122.95722 | 32979 ft | 508 kts | 45° |
| 2026-05-06 10:12 | 25.91906 | 123.01710 | 32983 ft | 508 kts | 45° |
| 2026-05-06 10:13 | 25.96441 | 123.07668 | 32979 ft | 508 kts | 45° |
| 2026-05-06 10:13 | 26.01001 | 123.13673 | 32981 ft | 508 kts | 45° |
| 2026-05-06 10:14 | 26.05558 | 123.19681 | 32987 ft | 507 kts | 45° |
| 2026-05-06 10:14 | 26.10104 | 123.25682 | 32981 ft | 507 kts | 45° |
| 2026-05-06 10:15 | 26.14616 | 123.31646 | 32985 ft | 507 kts | 45° |
| 2026-05-06 10:15 | 26.19152 | 123.37649 | 32982 ft | 507 kts | 45° |
| 2026-05-06 10:16 | 26.23692 | 123.43666 | 32986 ft | 507 kts | 45° |
| 2026-05-06 10:16 | 26.28228 | 123.49684 | 32987 ft | 508 kts | 45° |
| 2026-05-06 10:17 | 26.32774 | 123.55726 | 32989 ft | 508 kts | 45° |
| 2026-05-06 10:17 | 26.37320 | 123.61774 | 32995 ft | 509 kts | 45° |
| 2026-05-06 10:18 | 26.41873 | 123.67842 | 32993 ft | 510 kts | 45° |
| 2026-05-06 10:18 | 26.46430 | 123.73922 | 32999 ft | 511 kts | 45° |
| 2026-05-06 10:19 | 26.50990 | 123.80014 | 32996 ft | 511 kts | 45° |
| 2026-05-06 10:19 | 26.55523 | 123.86081 | 32992 ft | 512 kts | 45° |
| 2026-05-06 10:20 | 26.60083 | 123.92190 | 32994 ft | 512 kts | 45° |
| 2026-05-06 10:20 | 26.64648 | 123.98315 | 33000 ft | 512 kts | 45° |
| 2026-05-06 10:21 | 26.69220 | 124.04447 | 32997 ft | 513 kts | 45° |
| 2026-05-06 10:21 | 26.73794 | 124.10573 | 33001 ft | 513 kts | 46° |
| 2026-05-06 10:22 | 26.78362 | 124.16703 | 32999 ft | 513 kts | 46° |
| 2026-05-06 10:22 | 26.82903 | 124.22808 | 32992 ft | 513 kts | 46° |
| 2026-05-06 10:23 | 26.87470 | 124.28956 | 32997 ft | 514 kts | 46° |
| 2026-05-06 10:23 | 26.92040 | 124.35119 | 33003 ft | 514 kts | 46° |
| 2026-05-06 10:24 | 26.96614 | 124.41294 | 33004 ft | 515 kts | 46° |
| 2026-05-06 10:24 | 27.01196 | 124.47476 | 33007 ft | 516 kts | 46° |
| 2026-05-06 10:25 | 27.05799 | 124.53676 | 33009 ft | 517 kts | 46° |
| 2026-05-06 10:25 | 27.10406 | 124.59892 | 33011 ft | 519 kts | 46° |
| 2026-05-06 10:26 | 27.15019 | 124.66129 | 33013 ft | 520 kts | 46° |
| 2026-05-06 10:26 | 27.19640 | 124.72388 | 33015 ft | 521 kts | 46° |
| 2026-05-06 10:27 | 27.24240 | 124.78627 | 33011 ft | 521 kts | 46° |
| 2026-05-06 10:27 | 27.28867 | 124.84911 | 33007 ft | 522 kts | 46° |
| 2026-05-06 10:28 | 27.33494 | 124.91205 | 33015 ft | 523 kts | 47° |
| 2026-05-06 10:28 | 27.38133 | 124.97524 | 33010 ft | 523 kts | 47° |
| 2026-05-06 10:29 | 27.42782 | 125.03841 | 33012 ft | 523 kts | 46° |
| 2026-05-06 10:29 | 27.47460 | 125.10142 | 33009 ft | 524 kts | 46° |
| 2026-05-06 10:30 | 27.52134 | 125.16442 | 33010 ft | 524 kts | 46° |
| 2026-05-06 10:30 | 27.56777 | 125.22719 | 33008 ft | 525 kts | 47° |
| 2026-05-06 10:31 | 27.61446 | 125.29048 | 33011 ft | 525 kts | 47° |
| 2026-05-06 10:31 | 27.66122 | 125.35395 | 33008 ft | 526 kts | 47° |
| 2026-05-06 10:32 | 27.70805 | 125.41761 | 33007 ft | 527 kts | 47° |
| 2026-05-06 10:32 | 27.75487 | 125.48135 | 33009 ft | 528 kts | 47° |
| 2026-05-06 10:33 | 27.80173 | 125.54523 | 33011 ft | 529 kts | 47° |
| 2026-05-06 10:33 | 27.84865 | 125.60929 | 33012 ft | 530 kts | 47° |
| 2026-05-06 10:34 | 27.89576 | 125.67371 | 33014 ft | 531 kts | 47° |
| 2026-05-06 10:34 | 27.94259 | 125.73784 | 33012 ft | 533 kts | 47° |
| 2026-05-06 10:35 | 27.98984 | 125.80265 | 33014 ft | 534 kts | 47° |
| 2026-05-06 10:35 | 28.03712 | 125.86760 | 33012 ft | 535 kts | 47° |
| 2026-05-06 10:36 | 28.07651 | 125.92178 | 33013 ft | 535 kts | 47° |
| 2026-05-06 10:36 | 28.13159 | 125.99767 | 33012 ft | 536 kts | 47° |
| 2026-05-06 10:37 | 28.17101 | 126.05205 | 33014 ft | 536 kts | 47° |
| 2026-05-06 10:37 | 28.21841 | 126.11755 | 33016 ft | 537 kts | 47° |
| 2026-05-06 10:38 | 28.26583 | 126.18317 | 33022 ft | 538 kts | 47° |
| 2026-05-06 10:38 | 28.31336 | 126.24905 | 33011 ft | 539 kts | 47° |
| 2026-05-06 10:39 | 28.36101 | 126.31518 | 33032 ft | 541 kts | 47° |
| 2026-05-06 10:39 | 28.40839 | 126.38106 | 33022 ft | 542 kts | 48° |
| 2026-05-06 10:40 | 28.45615 | 126.44757 | 33040 ft | 544 kts | 48° |
| 2026-05-06 10:40 | 28.50401 | 126.51432 | 33026 ft | 545 kts | 48° |
| 2026-05-06 10:41 | 28.55201 | 126.58139 | 33024 ft | 546 kts | 48° |
| 2026-05-06 10:41 | 28.59997 | 126.64849 | 33027 ft | 547 kts | 48° |
| 2026-05-06 10:42 | 28.64794 | 126.71573 | 33030 ft | 547 kts | 48° |
| 2026-05-06 10:42 | 28.69590 | 126.78305 | 33030 ft | 548 kts | 48° |
| 2026-05-06 10:43 | 28.74397 | 126.85063 | 33032 ft | 549 kts | 49° |
| 2026-05-06 10:44 | 28.81621 | 126.95239 | 33033 ft | 551 kts | 49° |
| 2026-05-06 10:44 | 28.86419 | 127.02013 | 33031 ft | 553 kts | 49° |
| 2026-05-06 10:45 | 28.91254 | 127.08849 | 33039 ft | 554 kts | 49° |
| 2026-05-06 10:45 | 28.96112 | 127.15731 | 33036 ft | 556 kts | 49° |
| 2026-05-06 10:46 | 29.00974 | 127.22628 | 33032 ft | 558 kts | 49° |
| 2026-05-06 10:46 | 29.05820 | 127.29515 | 33035 ft | 559 kts | 49° |
| 2026-05-06 10:47 | 29.10697 | 127.36458 | 33033 ft | 560 kts | 49° |
| 2026-05-06 10:47 | 29.15580 | 127.43420 | 33036 ft | 561 kts | 50° |
| 2026-05-06 10:48 | 29.20467 | 127.50400 | 33035 ft | 562 kts | 50° |
| 2026-05-06 10:48 | 29.25353 | 127.57391 | 33044 ft | 562 kts | 50° |
| 2026-05-06 10:49 | 29.30247 | 127.64404 | 33043 ft | 564 kts | 50° |
| 2026-05-06 10:49 | 29.35138 | 127.71426 | 33042 ft | 564 kts | 50° |
| 2026-05-06 10:50 | 29.40039 | 127.78474 | 33043 ft | 566 kts | 50° |
| 2026-05-06 10:50 | 29.44916 | 127.85501 | 33046 ft | 567 kts | 50° |
| 2026-05-06 10:51 | 29.49838 | 127.92606 | 33053 ft | 568 kts | 50° |
| 2026-05-06 10:51 | 29.54767 | 127.99728 | 33039 ft | 570 kts | 50° |
| 2026-05-06 10:52 | 29.59718 | 128.06881 | 33045 ft | 571 kts | 50° |
| 2026-05-06 10:52 | 29.64639 | 128.14004 | 33047 ft | 572 kts | 50° |
| 2026-05-06 10:53 | 29.69589 | 128.21184 | 33045 ft | 573 kts | 50° |
| 2026-05-06 10:53 | 29.74549 | 128.28394 | 33042 ft | 574 kts | 51° |
| 2026-05-06 10:54 | 29.79502 | 128.35606 | 33039 ft | 575 kts | 51° |
| 2026-05-06 10:54 | 29.84460 | 128.42837 | 33041 ft | 575 kts | 51° |
| 2026-05-06 10:55 | 29.89419 | 128.50083 | 33042 ft | 576 kts | 51° |
| 2026-05-06 10:55 | 29.94372 | 128.57334 | 33047 ft | 576 kts | 51° |
| 2026-05-06 10:56 | 29.99334 | 128.64610 | 33049 ft | 577 kts | 51° |
| 2026-05-06 10:56 | 30.04257 | 128.71843 | 33049 ft | 577 kts | 51° |
| 2026-05-06 10:57 | 30.09217 | 128.79142 | 33050 ft | 578 kts | 51° |
| 2026-05-06 10:57 | 30.14176 | 128.86455 | 33052 ft | 578 kts | 51° |
| 2026-05-06 10:58 | 30.19135 | 128.93781 | 33052 ft | 579 kts | 51° |
| 2026-05-06 10:58 | 30.24094 | 129.01120 | 33052 ft | 579 kts | 51° |
| 2026-05-06 10:59 | 30.29056 | 129.08472 | 33051 ft | 579 kts | 51° |
| 2026-05-06 10:59 | 30.33983 | 129.15786 | 33059 ft | 579 kts | 51° |
| 2026-05-06 11:00 | 30.38969 | 129.23204 | 33058 ft | 580 kts | 51° |
| 2026-05-06 11:00 | 30.43893 | 129.30543 | 33060 ft | 580 kts | 51° |
| 2026-05-06 11:01 | 30.48852 | 129.37949 | 33058 ft | 581 kts | 51° |
| 2026-05-06 11:01 | 30.53808 | 129.45363 | 33061 ft | 581 kts | 51° |
| 2026-05-06 11:02 | 30.58767 | 129.52797 | 33063 ft | 582 kts | 51° |
| 2026-05-06 11:02 | 30.63718 | 129.60232 | 33063 ft | 582 kts | 51° |
| 2026-05-06 11:03 | 30.68668 | 129.67680 | 33061 ft | 583 kts | 51° |
| 2026-05-06 11:03 | 30.73579 | 129.75082 | 33060 ft | 581 kts | 51° |
| 2026-05-06 11:04 | 30.78505 | 129.82524 | 33065 ft | 580 kts | 51° |
| 2026-05-06 11:04 | 30.83410 | 129.89946 | 33066 ft | 578 kts | 52° |
| 2026-05-06 11:05 | 30.87902 | 129.97707 | 33079 ft | 577 kts | 58° |
| 2026-05-06 11:05 | 30.92081 | 130.05690 | 33073 ft | 578 kts | 59° |
| 2026-05-06 11:06 | 30.96255 | 130.13692 | 33079 ft | 578 kts | 58° |
| 2026-05-06 11:06 | 31.00466 | 130.21677 | 33077 ft | 578 kts | 58° |
| 2026-05-06 11:07 | 31.04669 | 130.29613 | 33076 ft | 578 kts | 58° |
| 2026-05-06 11:07 | 31.08891 | 130.37604 | 33081 ft | 579 kts | 58° |
| 2026-05-06 11:08 | 31.13108 | 130.45610 | 33084 ft | 579 kts | 58° |
| 2026-05-06 11:08 | 31.17329 | 130.53646 | 33094 ft | 580 kts | 58° |
| 2026-05-06 11:09 | 31.21544 | 130.61687 | 33086 ft | 581 kts | 58° |
| 2026-05-06 11:09 | 31.25737 | 130.69702 | 33089 ft | 581 kts | 58° |
| 2026-05-06 11:10 | 31.29957 | 130.77785 | 33093 ft | 581 kts | 59° |
| 2026-05-06 11:10 | 31.34164 | 130.85860 | 33092 ft | 581 kts | 59° |
| 2026-05-06 11:11 | 31.38367 | 130.93943 | 33098 ft | 581 kts | 59° |
| 2026-05-06 11:11 | 31.42562 | 131.02029 | 33104 ft | 581 kts | 59° |
| 2026-05-06 11:12 | 31.46750 | 131.10119 | 33102 ft | 581 kts | 59° |
| 2026-05-06 11:12 | 31.50930 | 131.18212 | 33105 ft | 581 kts | 59° |
| 2026-05-06 11:13 | 31.55112 | 131.26324 | 33105 ft | 580 kts | 59° |
| 2026-05-06 11:13 | 31.59281 | 131.34428 | 33113 ft | 580 kts | 59° |
| 2026-05-06 11:14 | 31.63418 | 131.42489 | 33108 ft | 580 kts | 59° |
| 2026-05-06 11:14 | 31.67572 | 131.50610 | 33092 ft | 580 kts | 59° |
| 2026-05-06 11:15 | 31.71714 | 131.58728 | 33098 ft | 579 kts | 59° |
| 2026-05-06 11:15 | 31.75855 | 131.66861 | 33102 ft | 579 kts | 59° |
| 2026-05-06 11:16 | 31.79990 | 131.74998 | 33101 ft | 579 kts | 59° |
| 2026-05-06 11:16 | 31.84119 | 131.83142 | 33099 ft | 580 kts | 60° |
| 2026-05-06 11:17 | 31.88246 | 131.91298 | 33097 ft | 580 kts | 60° |
| 2026-05-06 11:17 | 31.92374 | 131.99474 | 33099 ft | 580 kts | 60° |
| 2026-05-06 11:18 | 31.96489 | 132.07644 | 33100 ft | 580 kts | 60° |
| 2026-05-06 11:18 | 32.00601 | 132.15822 | 33096 ft | 580 kts | 60° |
| 2026-05-06 11:19 | 32.04706 | 132.24008 | 33102 ft | 580 kts | 60° |
| 2026-05-06 11:19 | 32.08779 | 132.32146 | 33103 ft | 580 kts | 60° |
| 2026-05-06 11:20 | 32.12849 | 132.40358 | 33093 ft | 579 kts | 62° |
| 2026-05-06 11:20 | 32.16524 | 132.48810 | 33102 ft | 579 kts | 65° |
| 2026-05-06 11:21 | 32.20074 | 132.57348 | 33092 ft | 578 kts | 65° |
| 2026-05-06 11:21 | 32.23639 | 132.65885 | 33101 ft | 578 kts | 65° |
| 2026-05-06 11:22 | 32.26618 | 132.72956 | 33100 ft | 578 kts | 65° |
| 2026-05-06 11:22 | 32.30796 | 132.82862 | 33098 ft | 578 kts | 65° |
| 2026-05-06 11:23 | 32.33771 | 132.89938 | 33098 ft | 578 kts | 65° |
| 2026-05-06 11:23 | 32.37342 | 132.98461 | 33101 ft | 578 kts | 65° |
| 2026-05-06 11:23 | 32.39109 | 133.02680 | 33005 ft | 564 kts | 66° |
| 2026-05-06 11:24 | 32.40831 | 133.06795 | 33027 ft | 551 kts | 66° |
| 2026-05-06 11:24 | 32.44213 | 133.14910 | 33109 ft | 553 kts | 66° |
| 2026-05-06 11:25 | 32.47637 | 133.23152 | 33110 ft | 560 kts | 66° |
| 2026-05-06 11:25 | 32.51077 | 133.31438 | 33099 ft | 560 kts | 66° |
| 2026-05-06 11:26 | 32.54485 | 133.39663 | 33105 ft | 559 kts | 66° |
| 2026-05-06 11:26 | 32.57913 | 133.47941 | 33107 ft | 558 kts | 66° |
| 2026-05-06 11:27 | 32.61360 | 133.56197 | 33107 ft | 558 kts | 66° |
| 2026-05-06 11:27 | 32.64790 | 133.64454 | 33106 ft | 557 kts | 66° |
| 2026-05-06 11:28 | 32.68169 | 133.72728 | 33112 ft | 556 kts | 67° |
| 2026-05-06 11:28 | 32.71534 | 133.81007 | 33110 ft | 556 kts | 67° |
| 2026-05-06 11:29 | 32.74895 | 133.89275 | 33108 ft | 556 kts | 67° |
| 2026-05-06 11:29 | 32.78232 | 133.97495 | 33109 ft | 556 kts | 67° |
| 2026-05-06 11:30 | 32.81565 | 134.05792 | 33108 ft | 555 kts | 69° |
| 2026-05-06 11:30 | 32.84118 | 134.14397 | 33115 ft | 551 kts | 77° |
| 2026-05-06 11:31 | 32.86227 | 134.23178 | 33117 ft | 551 kts | 78° |
| 2026-05-06 11:31 | 32.88355 | 134.31964 | 33112 ft | 552 kts | 77° |
| 2026-05-06 11:32 | 32.90511 | 134.40671 | 33113 ft | 553 kts | 77° |
| 2026-05-06 11:32 | 32.92690 | 134.49443 | 33111 ft | 553 kts | 77° |
| 2026-05-06 11:33 | 32.94860 | 134.58232 | 33115 ft | 553 kts | 77° |
| 2026-05-06 11:33 | 32.97017 | 134.67009 | 33114 ft | 552 kts | 77° |
| 2026-05-06 11:34 | 32.99170 | 134.75797 | 33116 ft | 552 kts | 77° |
| 2026-05-06 11:34 | 33.01312 | 134.84581 | 33120 ft | 552 kts | 77° |
| 2026-05-06 11:35 | 33.03444 | 134.93379 | 33119 ft | 552 kts | 77° |
| 2026-05-06 11:35 | 33.05553 | 135.02114 | 33118 ft | 551 kts | 77° |
| 2026-05-06 11:36 | 33.07671 | 135.10907 | 33119 ft | 551 kts | 77° |
| 2026-05-06 11:36 | 33.09782 | 135.19699 | 33122 ft | 552 kts | 77° |
| 2026-05-06 11:37 | 33.11809 | 135.28527 | 33120 ft | 551 kts | 79° |
| 2026-05-06 11:37 | 33.13755 | 135.37388 | 33128 ft | 552 kts | 79° |
| 2026-05-06 11:38 | 33.15703 | 135.46247 | 33130 ft | 552 kts | 79° |
| 2026-05-06 11:38 | 33.17665 | 135.55121 | 33126 ft | 553 kts | 79° |
| 2026-05-06 11:39 | 33.19625 | 135.64000 | 33132 ft | 553 kts | 79° |
| 2026-05-06 11:39 | 33.21576 | 135.72881 | 33128 ft | 552 kts | 79° |
| 2026-05-06 11:40 | 33.23503 | 135.81692 | 33131 ft | 552 kts | 79° |
| 2026-05-06 11:40 | 33.25442 | 135.90586 | 33130 ft | 552 kts | 79° |
| 2026-05-06 11:41 | 33.27357 | 135.99468 | 33128 ft | 552 kts | 79° |
| 2026-05-06 11:41 | 33.29259 | 136.08349 | 33131 ft | 552 kts | 79° |
| 2026-05-06 11:42 | 33.31159 | 136.17246 | 33135 ft | 552 kts | 79° |
| 2026-05-06 11:42 | 33.33056 | 136.26153 | 33132 ft | 553 kts | 79° |
| 2026-05-06 11:43 | 33.34947 | 136.35066 | 33132 ft | 553 kts | 79° |
| 2026-05-06 11:43 | 33.36833 | 136.43990 | 33135 ft | 554 kts | 79° |
| 2026-05-06 11:44 | 33.39644 | 136.57351 | 33132 ft | 555 kts | 79° |
| 2026-05-06 11:44 | 33.41523 | 136.66326 | 33130 ft | 556 kts | 79° |
| 2026-05-06 11:45 | 33.43395 | 136.75305 | 33136 ft | 556 kts | 79° |
| 2026-05-06 11:45 | 33.45266 | 136.84309 | 33133 ft | 557 kts | 79° |
| 2026-05-06 11:46 | 33.47133 | 136.93335 | 33133 ft | 558 kts | 79° |
| 2026-05-06 11:46 | 33.48997 | 137.02377 | 33129 ft | 558 kts | 79° |
| 2026-05-06 11:47 | 33.50851 | 137.11406 | 33129 ft | 559 kts | 79° |
| 2026-05-06 11:47 | 33.52689 | 137.20394 | 33127 ft | 558 kts | 79° |
| 2026-05-06 11:48 | 33.54529 | 137.29433 | 33128 ft | 558 kts | 79° |
| 2026-05-06 11:48 | 33.56364 | 137.38477 | 33126 ft | 557 kts | 79° |
| 2026-05-06 11:49 | 33.58188 | 137.47509 | 33129 ft | 557 kts | 79° |
| 2026-05-06 11:49 | 33.60005 | 137.56534 | 33127 ft | 556 kts | 79° |
| 2026-05-06 11:50 | 33.62289 | 137.65426 | 33120 ft | 559 kts | 69° |
| 2026-05-06 11:50 | 33.65532 | 137.73905 | 33129 ft | 560 kts | 66° |
| 2026-05-06 11:51 | 33.68853 | 137.82361 | 33126 ft | 559 kts | 66° |
| 2026-05-06 11:51 | 33.72101 | 137.90781 | 33131 ft | 559 kts | 66° |
| 2026-05-06 11:52 | 33.75329 | 137.99280 | 33130 ft | 559 kts | 66° |
| 2026-05-06 11:52 | 33.78548 | 138.07799 | 33131 ft | 560 kts | 66° |
| 2026-05-06 11:53 | 33.81765 | 138.16327 | 33133 ft | 560 kts | 66° |
| 2026-05-06 11:53 | 33.84983 | 138.24866 | 33134 ft | 560 kts | 66° |
| 2026-05-06 11:54 | 33.88195 | 138.33412 | 33136 ft | 561 kts | 66° |
| 2026-05-06 11:54 | 33.91404 | 138.41969 | 33135 ft | 561 kts | 66° |
| 2026-05-06 11:55 | 33.94610 | 138.50545 | 33140 ft | 561 kts | 66° |
| 2026-05-06 11:55 | 33.97811 | 138.59126 | 33139 ft | 561 kts | 66° |
| 2026-05-06 11:56 | 34.00984 | 138.67658 | 33139 ft | 561 kts | 66° |
| 2026-05-06 11:56 | 34.04169 | 138.76244 | 33139 ft | 561 kts | 66° |
| 2026-05-06 11:57 | 34.07348 | 138.84835 | 33139 ft | 561 kts | 66° |
| 2026-05-06 11:57 | 34.10519 | 138.93428 | 33137 ft | 560 kts | 66° |
| 2026-05-06 11:58 | 34.13688 | 139.02036 | 33145 ft | 560 kts | 66° |
| 2026-05-06 11:58 | 34.16847 | 139.10643 | 33147 ft | 560 kts | 66° |
| 2026-05-06 11:59 | 34.20000 | 139.19256 | 33147 ft | 561 kts | 66° |
| 2026-05-06 11:59 | 34.23152 | 139.27887 | 33151 ft | 561 kts | 66° |
| 2026-05-06 12:00 | 34.26302 | 139.36538 | 33147 ft | 562 kts | 66° |
| 2026-05-06 12:00 | 34.29427 | 139.45141 | 33153 ft | 563 kts | 67° |
| 2026-05-06 12:01 | 34.32567 | 139.53810 | 33155 ft | 563 kts | 67° |
| 2026-05-06 12:01 | 34.35705 | 139.62498 | 33154 ft | 564 kts | 67° |
| 2026-05-06 12:02 | 34.38840 | 139.71200 | 33157 ft | 564 kts | 67° |
| 2026-05-06 12:02 | 34.41968 | 139.79905 | 33157 ft | 564 kts | 67° |
| 2026-05-06 12:03 | 34.45087 | 139.88611 | 33158 ft | 564 kts | 67° |
| 2026-05-06 12:03 | 34.48204 | 139.97334 | 33151 ft | 563 kts | 67° |
| 2026-05-06 12:04 | 34.51311 | 140.06053 | 33153 ft | 563 kts | 67° |
| 2026-05-06 12:04 | 34.54406 | 140.14760 | 33168 ft | 562 kts | 67° |
| 2026-05-06 12:05 | 34.57491 | 140.23465 | 33154 ft | 561 kts | 67° |
| 2026-05-06 12:05 | 34.60566 | 140.32165 | 33154 ft | 561 kts | 67° |
| 2026-05-06 12:06 | 34.63634 | 140.40871 | 33156 ft | 561 kts | 67° |
| 2026-05-06 12:06 | 34.66696 | 140.49586 | 33166 ft | 560 kts | 67° |
| 2026-05-06 12:07 | 34.69780 | 140.58281 | 33159 ft | 558 kts | 63° |
| 2026-05-06 12:07 | 34.71899 | 140.62205 | 33157 ft | 555 kts | 45° |
| 2026-05-06 12:07 | 34.74762 | 140.65293 | 33174 ft | 546 kts | 29° |
| 2026-05-06 12:08 | 34.78056 | 140.67516 | 33196 ft | 538 kts | 17° |
| 2026-05-06 12:08 | 34.81570 | 140.68914 | 33177 ft | 526 kts | 3° |
| 2026-05-06 12:08 | 34.88714 | 140.69694 | 33204 ft | 520 kts | 356° |
| 2026-05-06 12:09 | 34.95965 | 140.70452 | 33217 ft | 526 kts | 358° |
| 2026-05-06 12:09 | 35.03278 | 140.71369 | 33228 ft | 530 kts | 358° |
| 2026-05-06 12:10 | 35.09430 | 140.72197 | 33242 ft | 533 kts | 0° |
| 2026-05-06 12:10 | 35.16782 | 140.73799 | 33248 ft | 537 kts | 4° |
| 2026-05-06 12:11 | 35.24109 | 140.75614 | 33251 ft | 537 kts | 3° |
| 2026-05-06 12:11 | 35.31397 | 140.77335 | 33249 ft | 532 kts | 2° |
| 2026-05-06 12:12 | 35.34984 | 140.78164 | 33228 ft | 516 kts | 2° |
| 2026-05-06 12:12 | 35.38469 | 140.78966 | 33208 ft | 501 kts | 1° |
| 2026-05-06 12:12 | 35.41840 | 140.79737 | 33187 ft | 486 kts | 1° |
| 2026-05-06 12:12 | 35.45125 | 140.80487 | 33170 ft | 472 kts | 1° |
| 2026-05-06 12:13 | 35.48300 | 140.81210 | 33146 ft | 458 kts | 0° |
| 2026-05-06 12:13 | 35.51416 | 140.81919 | 33138 ft | 452 kts | 0° |
| 2026-05-06 12:13 | 35.57586 | 140.83325 | 33146 ft | 451 kts | 360° |
| 2026-05-06 12:14 | 35.63752 | 140.84744 | 33156 ft | 450 kts | 360° |
| 2026-05-06 12:14 | 35.69846 | 140.86854 | 33162 ft | 473 kts | 19° |
| 2026-05-06 12:15 | 35.75677 | 140.90691 | 33190 ft | 476 kts | 15° |
| 2026-05-06 12:15 | 35.78740 | 140.91895 | 33174 ft | 449 kts | 354° |
| 2026-05-06 12:15 | 35.81779 | 140.92055 | 33215 ft | 434 kts | 348° |
| 2026-05-06 12:16 | 35.87855 | 140.92154 | 33188 ft | 427 kts | 340° |
| 2026-05-06 12:16 | 35.90602 | 140.91311 | 33176 ft | 389 kts | 317° |
| 2026-05-06 12:16 | 35.92597 | 140.89381 | 33185 ft | 347 kts | 293° |
| 2026-05-06 12:17 | 35.93540 | 140.86826 | 33185 ft | 318 kts | 269° |
| 2026-05-06 12:17 | 35.93577 | 140.84135 | 33197 ft | 313 kts | 261° |
| 2026-05-06 12:17 | 35.93151 | 140.78769 | 33209 ft | 317 kts | 257° |
| 2026-05-06 12:18 | 35.92468 | 140.76216 | 33184 ft | 312 kts | 240° |
| 2026-05-06 12:18 | 35.91281 | 140.73995 | 33195 ft | 309 kts | 239° |
| 2026-05-06 12:18 | 35.88941 | 140.69584 | 33182 ft | 307 kts | 239° |
| 2026-05-06 12:19 | 35.86744 | 140.65050 | 33169 ft | 307 kts | 251° |
| 2026-05-06 12:19 | 35.86308 | 140.62463 | 33193 ft | 311 kts | 262° |
| 2026-05-06 12:19 | 35.86351 | 140.59776 | 33204 ft | 317 kts | 269° |
| 2026-05-06 12:20 | 35.87446 | 140.54407 | 33187 ft | 342 kts | 292° |
| 2026-05-06 12:20 | 35.90520 | 140.49727 | 33213 ft | 355 kts | 298° |
| 2026-05-06 12:21 | 35.93684 | 140.45051 | 33230 ft | 355 kts | 296° |
| 2026-05-06 12:21 | 35.96758 | 140.40350 | 33156 ft | 351 kts | 295° |
| 2026-05-06 12:22 | 35.98194 | 140.37954 | 32771 ft | 339 kts | 289° |
| 2026-05-06 12:22 | 35.99051 | 140.35381 | 32367 ft | 314 kts | 273° |
| 2026-05-06 12:22 | 35.99267 | 140.32758 | 31988 ft | 302 kts | 264° |
| 2026-05-06 12:22 | 35.99190 | 140.30188 | 31590 ft | 297 kts | 260° |
| 2026-05-06 12:23 | 35.98850 | 140.27707 | 31174 ft | 291 kts | 250° |
| 2026-05-06 12:23 | 35.97947 | 140.25489 | 30732 ft | 289 kts | 238° |
| 2026-05-06 12:23 | 35.96417 | 140.23835 | 30223 ft | 308 kts | 213° |
| 2026-05-06 12:23 | 35.94213 | 140.23362 | 29657 ft | 343 kts | 187° |
| 2026-05-06 12:24 | 35.91831 | 140.24324 | 29146 ft | 383 kts | 161° |
| 2026-05-06 12:24 | 35.89804 | 140.26660 | 28673 ft | 417 kts | 136° |
| 2026-05-06 12:24 | 35.88186 | 140.29610 | 28204 ft | 402 kts | 146° |
| 2026-05-06 12:24 | 35.86100 | 140.31586 | 27623 ft | 361 kts | 169° |
| 2026-05-06 12:25 | 35.83827 | 140.32752 | 27285 ft | 350 kts | 172° |
| 2026-05-06 12:25 | 35.81605 | 140.33964 | 26961 ft | 351 kts | 167° |
| 2026-05-06 12:25 | 35.79468 | 140.35359 | 26632 ft | 352 kts | 164° |
| 2026-05-06 12:25 | 35.77350 | 140.36862 | 26302 ft | 350 kts | 162° |
| 2026-05-06 12:26 | 35.75243 | 140.38372 | 25560 ft | 350 kts | 167° |
| 2026-05-06 12:26 | 35.72921 | 140.39148 | 24229 ft | 347 kts | 188° |
| 2026-05-06 12:26 | 35.70498 | 140.38725 | 22698 ft | 360 kts | 203° |
| 2026-05-06 12:26 | 35.68197 | 140.37398 | 21314 ft | 368 kts | 212° |
| 2026-05-06 12:27 | 35.65739 | 140.36330 | 20149 ft | 392 kts | 192° |
| 2026-05-06 12:27 | 35.62946 | 140.36371 | 19310 ft | 408 kts | 182° |
| 2026-05-06 12:27 | 35.60108 | 140.36609 | 18602 ft | 409 kts | 184° |
| 2026-05-06 12:27 | 35.57259 | 140.36709 | 17962 ft | 408 kts | 186° |
| 2026-05-06 12:28 | 35.54438 | 140.36745 | 17519 ft | 399 kts | 186° |
| 2026-05-06 12:28 | 35.51729 | 140.37202 | 16881 ft | 408 kts | 167° |
| 2026-05-06 12:28 | 35.49193 | 140.38850 | 16246 ft | 412 kts | 153° |
| 2026-05-06 12:28 | 35.46736 | 140.40683 | 15647 ft | 410 kts | 155° |
| 2026-05-06 12:29 | 35.44284 | 140.42415 | 15221 ft | 402 kts | 154° |
| 2026-05-06 12:29 | 35.42127 | 140.44584 | 14594 ft | 410 kts | 132° |
| 2026-05-06 12:29 | 35.40835 | 140.47717 | 14060 ft | 418 kts | 106° |
| 2026-05-06 12:29 | 35.40670 | 140.51250 | 13603 ft | 412 kts | 85° |
| 2026-05-06 12:30 | 35.40964 | 140.54713 | 12881 ft | 408 kts | 89° |
| 2026-05-06 12:30 | 35.40855 | 140.58184 | 12264 ft | 407 kts | 98° |
| 2026-05-06 12:30 | 35.40124 | 140.61462 | 11614 ft | 396 kts | 121° |
| 2026-05-06 12:30 | 35.38414 | 140.63965 | 11079 ft | 382 kts | 148° |
| 2026-05-06 12:31 | 35.36070 | 140.65276 | 10651 ft | 362 kts | 172° |
| 2026-05-06 12:31 | 35.33608 | 140.65804 | 10090 ft | 360 kts | 175° |
| 2026-05-06 12:31 | 35.31168 | 140.66434 | 9853 ft | 353 kts | 169° |
| 2026-05-06 12:31 | 35.28861 | 140.67346 | 9763 ft | 342 kts | 164° |
| 2026-05-06 12:32 | 35.26696 | 140.68448 | 9665 ft | 331 kts | 160° |
| 2026-05-06 12:32 | 35.24650 | 140.69636 | 9572 ft | 320 kts | 159° |
| 2026-05-06 12:32 | 35.22692 | 140.70831 | 9530 ft | 307 kts | 158° |
| 2026-05-06 12:32 | 35.20980 | 140.72266 | 9520 ft | 302 kts | 134° |
| 2026-05-06 12:33 | 35.19982 | 140.74531 | 9565 ft | 314 kts | 108° |
| 2026-05-06 12:33 | 35.19789 | 140.77206 | 9559 ft | 319 kts | 84° |
| 2026-05-06 12:33 | 35.20407 | 140.79796 | 9537 ft | 318 kts | 60° |
| 2026-05-06 12:33 | 35.21775 | 140.81874 | 9539 ft | 313 kts | 35° |
| 2026-05-06 12:34 | 35.23660 | 140.83101 | 9547 ft | 304 kts | 12° |
| 2026-05-06 12:34 | 35.25716 | 140.83444 | 9545 ft | 295 kts | 355° |
| 2026-05-06 12:34 | 35.27768 | 140.83414 | 9550 ft | 295 kts | 353° |
| 2026-05-06 12:34 | 35.29822 | 140.83346 | 9548 ft | 296 kts | 353° |
| 2026-05-06 12:35 | 35.31327 | 140.83293 | 9543 ft | 297 kts | 353° |
| 2026-05-06 12:35 | 35.33022 | 140.83238 | 9558 ft | 298 kts | 353° |
| 2026-05-06 12:35 | 35.35100 | 140.83173 | 9556 ft | 299 kts | 353° |
| 2026-05-06 12:35 | 35.37154 | 140.83120 | 9553 ft | 300 kts | 354° |
| 2026-05-06 12:36 | 35.39274 | 140.83073 | 9550 ft | 301 kts | 354° |
| 2026-05-06 12:36 | 35.41339 | 140.83031 | 9547 ft | 301 kts | 354° |
| 2026-05-06 12:36 | 35.43436 | 140.82988 | 9547 ft | 301 kts | 354° |
| 2026-05-06 12:36 | 35.45530 | 140.82946 | 9535 ft | 301 kts | 354° |
| 2026-05-06 12:37 | 35.47628 | 140.82904 | 9546 ft | 300 kts | 353° |
| 2026-05-06 12:37 | 35.49713 | 140.82862 | 9543 ft | 299 kts | 353° |
| 2026-05-06 12:37 | 35.51795 | 140.82820 | 9544 ft | 298 kts | 353° |
| 2026-05-06 12:37 | 35.53869 | 140.82779 | 9542 ft | 298 kts | 353° |
| 2026-05-06 12:38 | 35.55933 | 140.82830 | 9536 ft | 299 kts | 1° |
| 2026-05-06 12:38 | 35.57989 | 140.83270 | 9550 ft | 301 kts | 7° |
| 2026-05-06 12:38 | 35.60038 | 140.83815 | 9554 ft | 301 kts | 7° |
| 2026-05-06 12:38 | 35.62091 | 140.84335 | 9550 ft | 301 kts | 6° |
| 2026-05-06 12:39 | 35.64150 | 140.84828 | 9554 ft | 302 kts | 6° |
| 2026-05-06 12:39 | 35.66213 | 140.85309 | 9551 ft | 302 kts | 6° |
| 2026-05-06 12:39 | 35.68251 | 140.85988 | 9538 ft | 305 kts | 19° |
| 2026-05-06 12:39 | 35.70160 | 140.87148 | 9555 ft | 308 kts | 24° |
| 2026-05-06 12:40 | 35.72027 | 140.88386 | 9555 ft | 309 kts | 24° |
| 2026-05-06 12:40 | 35.73940 | 140.89618 | 9560 ft | 310 kts | 23° |
| 2026-05-06 12:40 | 35.75871 | 140.90781 | 9544 ft | 305 kts | 14° |
| 2026-05-06 12:40 | 35.77896 | 140.91022 | 9550 ft | 288 kts | 342° |
| 2026-05-06 12:41 | 35.79670 | 140.90049 | 9572 ft | 276 kts | 317° |
| 2026-05-06 12:41 | 35.80985 | 140.88373 | 9552 ft | 271 kts | 301° |
| 2026-05-06 12:41 | 35.81954 | 140.86388 | 9551 ft | 268 kts | 288° |
| 2026-05-06 12:41 | 35.82325 | 140.84172 | 9557 ft | 264 kts | 272° |
| 2026-05-06 12:42 | 35.82468 | 140.81904 | 9553 ft | 267 kts | 272° |
| 2026-05-06 12:42 | 35.82605 | 140.79614 | 9547 ft | 269 kts | 272° |
| 2026-05-06 12:42 | 35.82747 | 140.77308 | 9541 ft | 270 kts | 272° |
| 2026-05-06 12:42 | 35.82894 | 140.75011 | 9501 ft | 268 kts | 272° |
| 2026-05-06 12:43 | 35.83046 | 140.72722 | 9173 ft | 270 kts | 272° |
| 2026-05-06 12:43 | 35.83203 | 140.70387 | 8658 ft | 276 kts | 272° |
| 2026-05-06 12:43 | 35.83366 | 140.68008 | 8169 ft | 280 kts | 272° |
| 2026-05-06 12:43 | 35.83533 | 140.65593 | 7685 ft | 284 kts | 272° |
| 2026-05-06 12:44 | 35.83701 | 140.63151 | 7205 ft | 288 kts | 272° |
| 2026-05-06 12:44 | 35.83928 | 140.60727 | 6710 ft | 289 kts | 281° |
| 2026-05-06 12:44 | 35.84811 | 140.58449 | 6220 ft | 296 kts | 304° |
| 2026-05-06 12:44 | 35.86101 | 140.56499 | 5742 ft | 299 kts | 306° |
| 2026-05-06 12:45 | 35.87430 | 140.54514 | 5308 ft | 299 kts | 306° |
| 2026-05-06 12:45 | 35.88718 | 140.52585 | 5299 ft | 285 kts | 306° |
| 2026-05-06 12:45 | 35.91145 | 140.48921 | 5133 ft | 268 kts | 306° |
| 2026-05-06 12:46 | 35.92322 | 140.47131 | 4733 ft | 271 kts | 305° |
| 2026-05-06 12:46 | 35.93507 | 140.45325 | 4437 ft | 269 kts | 306° |
| 2026-05-06 12:46 | 35.94671 | 140.43554 | 4244 ft | 263 kts | 305° |
| 2026-05-06 12:46 | 35.95811 | 140.41816 | 4040 ft | 258 kts | 306° |
| 2026-05-06 12:47 | 35.96899 | 140.40090 | 3911 ft | 251 kts | 303° |
| 2026-05-06 12:47 | 35.97935 | 140.38364 | 3809 ft | 250 kts | 303° |
| 2026-05-06 12:47 | 35.98975 | 140.36627 | 3717 ft | 253 kts | 303° |
| 2026-05-06 12:47 | 36.00023 | 140.34874 | 3607 ft | 252 kts | 300° |
| 2026-05-06 12:48 | 36.00648 | 140.32918 | 3495 ft | 244 kts | 271° |
| 2026-05-06 12:48 | 36.00410 | 140.30888 | 3406 ft | 239 kts | 246° |
| 2026-05-06 12:48 | 35.99660 | 140.29059 | 3317 ft | 239 kts | 238° |
| 2026-05-06 12:48 | 35.98803 | 140.27296 | 3240 ft | 239 kts | 237° |
| 2026-05-06 12:49 | 35.97923 | 140.25609 | 3093 ft | 226 kts | 226° |
| 2026-05-06 12:49 | 35.96662 | 140.24631 | 2982 ft | 210 kts | 191° |
| 2026-05-06 12:49 | 35.95289 | 140.24770 | 3012 ft | 190 kts | 166° |
| 2026-05-06 12:49 | 35.94089 | 140.25283 | 2927 ft | 176 kts | 162° |
| 2026-05-06 12:50 | 35.92994 | 140.25850 | 2885 ft | 166 kts | 161° |
| 2026-05-06 12:50 | 35.91936 | 140.26426 | 2853 ft | 167 kts | 159° |
| 2026-05-06 12:50 | 35.90889 | 140.27091 | 2885 ft | 173 kts | 155° |
| 2026-05-06 12:50 | 35.89839 | 140.27823 | 2831 ft | 171 kts | 154° |
| 2026-05-06 12:51 | 35.88827 | 140.28552 | 2719 ft | 167 kts | 154° |
| 2026-05-06 12:51 | 35.87829 | 140.29275 | 2502 ft | 167 kts | 154° |
| 2026-05-06 12:51 | 35.86840 | 140.29995 | 2275 ft | 161 kts | 154° |
| 2026-05-06 12:51 | 35.85921 | 140.30665 | 2062 ft | 150 kts | 155° |
| 2026-05-06 12:52 | 35.85041 | 140.31304 | 1870 ft | 145 kts | 155° |
| 2026-05-06 12:52 | 35.84171 | 140.31934 | 1693 ft | 146 kts | 154° |
| 2026-05-06 12:52 | 35.83291 | 140.32573 | 1497 ft | 147 kts | 154° |
| 2026-05-06 12:52 | 35.82417 | 140.33209 | 1283 ft | 145 kts | 155° |
| 2026-05-06 12:53 | 35.81550 | 140.33836 | 1100 ft | 146 kts | 154° |
| 2026-05-06 12:53 | 35.80664 | 140.34484 | 917 ft | 149 kts | 152° |
| 2026-05-06 12:53 | 35.79777 | 140.35147 | 733 ft | 148 kts | 151° |
| 2026-05-06 12:53 | 35.78886 | 140.35783 | 531 ft | 148 kts | 151° |
| 2026-05-06 12:54 | 35.77974 | 140.36441 | 312 ft | 156 kts | 149° |
| 2026-05-06 12:54 | 35.77025 | 140.37130 | 155 ft | 157 kts | 149° |
| 2026-05-06 12:54 | 35.76174 | 140.37747 | 149 ft | 121 kts | 150° |
| 2026-05-06 12:54 | 35.75580 | 140.38175 | 151 ft | 77 kts | 149° |
| 2026-05-06 12:55 | 35.75246 | 140.38434 | 148 ft | 45 kts | 136° |
| 2026-05-06 12:55 | 35.75148 | 140.38596 | 149 ft | 7 kts | 121° |
| 2026-05-06 12:55 | 35.75127 | 140.38639 | 149 ft | 5 kts | 120° |
| 2026-05-06 12:55 | 35.75110 | 140.38678 | 149 ft | 5 kts | 111° |
| 2026-05-06 12:56 | 35.75116 | 140.38721 | 149 ft | 5 kts | 72° |
| 2026-05-06 12:56 | 35.75129 | 140.38763 | 149 ft | 6 kts | 60° |
| 2026-05-06 12:56 | 35.75143 | 140.38791 | 149 ft | 6 kts | 56° |
| 2026-05-06 12:56 | 35.75186 | 140.38836 | 149 ft | 10 kts | 24° |
| 2026-05-06 12:57 | 35.75252 | 140.38873 | 149 ft | 10 kts | 23° |
| 2026-05-06 12:57 | 35.75319 | 140.38909 | 149 ft | 12 kts | 23° |
| 2026-05-06 12:57 | 35.75481 | 140.38997 | 149 ft | 27 kts | 24° |
| 2026-05-06 12:57 | 35.75600 | 140.39063 | 149 ft | 28 kts | 24° |
| 2026-05-06 12:58 | 35.75735 | 140.39198 | 148 ft | 24 kts | 56° |
| 2026-05-06 12:58 | 35.75859 | 140.39324 | 148 ft | 24 kts | 25° |
| 2026-05-06 12:58 | 35.76007 | 140.39409 | 149 ft | 24 kts | 24° |
| 2026-05-06 12:58 | 35.76158 | 140.39492 | 149 ft | 24 kts | 24° |
| 2026-05-06 12:59 | 35.76307 | 140.39575 | 149 ft | 24 kts | 24° |
| 2026-05-06 12:59 | 35.76458 | 140.39659 | 149 ft | 24 kts | 24° |
| 2026-05-06 12:59 | 35.76608 | 140.39742 | 149 ft | 24 kts | 25° |
| 2026-05-06 12:59 | 35.76739 | 140.39864 | 149 ft | 24 kts | 32° |
| 2026-05-06 13:00 | 35.76879 | 140.39900 | 149 ft | 21 kts | 14° |
| 2026-05-06 13:00 | 35.77009 | 140.39963 | 149 ft | 27 kts | 23° |
| 2026-05-06 13:00 | 35.77159 | 140.39978 | 149 ft | 19 kts | 332° |
| 2026-05-06 13:00 | 35.77273 | 140.39901 | 149 ft | 19 kts | 327° |
| 2026-05-06 13:01 | 35.77382 | 140.39813 | 149 ft | 19 kts | 327° |
| 2026-05-06 13:01 | 35.77493 | 140.39730 | 149 ft | 19 kts | 334° |
| 2026-05-06 13:01 | 35.77610 | 140.39654 | 149 ft | 25 kts | 329° |
| 2026-05-06 13:01 | 35.77824 | 140.39499 | 148 ft | 36 kts | 329° |
| 2026-05-06 13:02 | 35.77916 | 140.39325 | 148 ft | 37 kts | 295° |
| 2026-05-06 13:02 | 35.77920 | 140.39149 | 148 ft | 19 kts | 241° |
| 2026-05-06 13:02 | 35.77854 | 140.39009 | 148 ft | 19 kts | 240° |
| 2026-05-06 13:02 | 35.77787 | 140.38871 | 148 ft | 19 kts | 236° |
| 2026-05-06 13:03 | 35.77712 | 140.38844 | 148 ft | 12 kts | 157° |
| 2026-05-06 13:03 | 35.77647 | 140.38888 | 148 ft | 10 kts | 151° |
| 2026-05-06 13:03 | 35.77600 | 140.38879 | 148 ft | 7 kts | 214° |
| 2026-05-06 13:03 | 35.77574 | 140.38837 | 148 ft | 5 kts | 239° |
| 2026-05-06 13:04 | 35.77569 | 140.38828 | 148 ft | 0 kts | 239° |